EGLC METAR and TAF | Updated Today

EGLC METAR

London City Airport

Observation time: 11 min. ago

EGLC 292020Z AUTO 28004KT 9999 NCD 14/07 Q1009

Need help? Read our tutorial on how to read METARs or read the parsed version below.

London City Airport (EGLC) METAR

  • Weather conditions on Thu, 29 Sep 2022 20:20:00 +0000 (11 min. ago):
  • Present conditions: Dry
  • Clouds: Nil cloud detected
  • Visibility: Greater than 10 km
  • Wind: 280 degrees at 4 knots
  • Temperature: 14 celsius
  • Dew point: 7 celsius
  • Pressure: 1009 millibars
  • Remarks: None


Useful to know...

EGLC TAF

London City Airport

TAF EGLC 291655Z 2918/3003 32006KT 9999 SCT045
Observation time: 3:36 hr. ago
Need help? Read our tutorial on how to read TAFs or read the parsed version below.

Parsed version of TAF for London City Airport (EGLC)

  • From 29 September at 18:00 UTC, to day 30 of the month at 03:00 UTC
  • Clouds: Scattered at 1372 meters
  • Visibility: Greater than 10 km
  • Wind: 320 degrees at 6